createdAt,value
2019-06-26T00:00:55.171Z,21.30
2019-06-26T00:03:26.046Z,21.30
2019-06-26T00:05:56.953Z,21.30
2019-06-26T00:08:27.864Z,21.20
2019-06-26T00:10:58.769Z,21.30
2019-06-26T00:13:29.677Z,21.20
2019-06-26T00:16:00.516Z,21.20
2019-06-26T00:18:31.384Z,21.10
2019-06-26T00:21:02.024Z,21.00
2019-06-26T00:23:32.861Z,21.10
2019-06-26T00:26:03.604Z,21.00
2019-06-26T00:28:34.476Z,21.00
2019-06-26T00:31:05.534Z,21.00
2019-06-26T00:33:36.350Z,21.00
2019-06-26T00:36:06.928Z,21.00
2019-06-26T00:38:40.041Z,20.90
2019-06-26T00:41:10.485Z,20.90
2019-06-26T00:43:42.569Z,20.90
2019-06-26T00:46:13.688Z,20.90
2019-06-26T00:48:44.605Z,20.90
2019-06-26T00:51:15.491Z,20.80
2019-06-26T00:53:46.379Z,20.70
2019-06-26T00:56:17.032Z,20.60
2019-06-26T00:58:47.959Z,20.60
2019-06-26T01:01:18.843Z,20.60
2019-06-26T01:03:51.367Z,20.70
2019-06-26T01:06:40.295Z,20.60
2019-06-26T01:09:12.403Z,20.60
2019-06-26T01:11:43.415Z,20.60
2019-06-26T01:14:14.354Z,20.60
2019-06-26T01:16:45.549Z,20.60
2019-06-26T01:19:16.402Z,20.60
2019-06-26T01:21:47.398Z,20.60
2019-06-26T01:24:18.392Z,20.50
2019-06-26T01:26:49.007Z,20.50
2019-06-26T01:29:19.864Z,20.50
2019-06-26T01:31:50.757Z,20.40
2019-06-26T01:34:21.882Z,20.40
2019-06-26T01:36:53.846Z,20.40
2019-06-26T01:39:24.707Z,20.30
2019-06-26T01:41:55.514Z,20.40
2019-06-26T01:44:26.507Z,20.40
2019-06-26T01:46:57.887Z,20.30
2019-06-26T01:49:28.840Z,20.30
2019-06-26T01:52:01.346Z,20.30
2019-06-26T01:54:32.186Z,20.20
2019-06-26T01:57:02.768Z,20.20
2019-06-26T01:59:33.657Z,20.20
2019-06-26T02:02:04.534Z,20.20
2019-06-26T02:04:35.714Z,20.10
2019-06-26T02:07:06.899Z,20.10
2019-06-26T02:09:37.776Z,20.10
2019-06-26T02:12:08.631Z,20.10
2019-06-26T02:14:39.567Z,20.10
2019-06-26T02:17:10.461Z,20.00
2019-06-26T02:19:41.645Z,20.00
2019-06-26T02:22:12.553Z,20.00
2019-06-26T02:24:43.418Z,20.00
2019-06-26T02:27:14.296Z,19.90
2019-06-26T02:29:45.171Z,19.80
2019-06-26T02:32:16.122Z,19.70
2019-06-26T02:34:47.002Z,19.80
2019-06-26T02:37:17.880Z,19.80
2019-06-26T02:39:50.789Z,19.80
2019-06-26T02:42:21.659Z,19.70
2019-06-26T02:44:54.655Z,19.80
2019-06-26T02:47:25.753Z,19.80
2019-06-26T02:49:56.726Z,19.70
2019-06-26T02:52:27.555Z,19.80
2019-06-26T02:54:58.813Z,19.70
2019-06-26T02:57:29.685Z,19.70
2019-06-26T03:00:00.586Z,19.70
2019-06-26T03:02:31.486Z,19.70
2019-06-26T03:05:02.510Z,19.60
2019-06-26T03:07:33.636Z,19.60
2019-06-26T03:10:05.555Z,19.60
2019-06-26T03:12:36.793Z,19.60
2019-06-26T03:15:09.495Z,19.60
2019-06-26T03:17:53.999Z,19.60
2019-06-26T03:20:13.838Z,19.60
2019-06-26T03:22:44.705Z,19.60
2019-06-26T03:25:18.316Z,19.60
2019-06-26T03:27:48.386Z,19.50
2019-06-26T03:30:20.153Z,19.40
2019-06-26T03:32:51.009Z,19.30
2019-06-26T03:35:21.845Z,19.30
2019-06-26T03:37:53.928Z,19.40
2019-06-26T03:40:24.854Z,19.40
2019-06-26T03:42:55.915Z,19.40
2019-06-26T03:45:26.835Z,19.40
2019-06-26T03:47:57.714Z,19.40
2019-06-26T03:50:28.614Z,19.40
2019-06-26T03:52:59.912Z,19.40
2019-06-26T03:55:31.199Z,19.50
2019-06-26T03:58:01.897Z,19.50
2019-06-26T04:00:43.946Z,19.60
2019-06-26T04:03:14.898Z,19.50
2019-06-26T04:05:45.769Z,19.50
2019-06-26T04:08:16.633Z,19.60
2019-06-26T04:10:47.238Z,19.70
2019-06-26T04:13:18.116Z,19.70
2019-06-26T04:15:51.020Z,19.80
2019-06-26T04:18:21.913Z,19.90
2019-06-26T04:20:54.233Z,20.00
2019-06-26T04:23:25.096Z,20.00
2019-06-26T04:25:55.927Z,20.00
2019-06-26T04:28:26.870Z,20.20
2019-06-26T04:30:57.959Z,20.40
2019-06-26T04:33:28.843Z,20.40
2019-06-26T04:35:59.692Z,20.30
2019-06-26T04:38:30.851Z,20.30
2019-06-26T04:41:02.046Z,20.40
2019-06-26T04:43:32.919Z,20.30
2019-06-26T04:46:04.073Z,20.20
2019-06-26T04:48:34.964Z,20.10
2019-06-26T04:51:06.168Z,20.30
2019-06-26T04:53:37.068Z,20.40
2019-06-26T04:56:08.051Z,20.50
2019-06-26T04:58:40.306Z,20.50
2019-06-26T05:01:11.147Z,20.70
2019-06-26T05:03:42.054Z,20.70
2019-06-26T05:06:12.684Z,21.30
2019-06-26T05:08:43.553Z,21.80
2019-06-26T05:11:14.523Z,21.50
2019-06-26T05:13:45.399Z,21.70
2019-06-26T05:16:20.013Z,22.10
2019-06-26T05:18:48.706Z,22.50
2019-06-26T05:21:19.686Z,22.70
2019-06-26T05:23:50.546Z,22.90
2019-06-26T05:26:21.505Z,23.10
2019-06-26T05:28:53.611Z,23.00
2019-06-26T05:31:24.476Z,23.50
2019-06-26T05:33:55.367Z,23.00
2019-06-26T05:36:26.256Z,22.90
2019-06-26T05:38:56.987Z,23.60
2019-06-26T05:41:27.894Z,24.30
2019-06-26T05:43:58.523Z,24.70
2019-06-26T05:46:31.480Z,24.70
2019-06-26T05:49:02.192Z,24.50
2019-06-26T05:51:33.127Z,24.50
2019-06-26T05:54:05.080Z,25.00
2019-06-26T05:56:36.033Z,25.50
2019-06-26T05:59:06.921Z,26.00
2019-06-26T06:01:38.156Z,25.00
2019-06-26T06:04:09.207Z,25.10
2019-06-26T06:06:42.082Z,25.10
2019-06-26T06:09:12.453Z,25.20
2019-06-26T06:11:43.326Z,25.40
2019-06-26T06:14:14.190Z,25.20
2019-06-26T06:16:47.698Z,25.60
2019-06-26T06:19:17.744Z,26.40
2019-06-26T06:21:48.607Z,26.50
2019-06-26T06:24:19.676Z,27.20
2019-06-26T06:26:50.569Z,27.80
2019-06-26T06:29:21.539Z,27.80
2019-06-26T06:31:53.575Z,28.20
2019-06-26T06:34:24.480Z,27.90
2019-06-26T06:36:55.363Z,28.50
2019-06-26T06:39:26.261Z,28.90
2019-06-26T06:41:57.129Z,29.00
2019-06-26T06:44:28.030Z,28.90
2019-06-26T06:47:03.801Z,29.60
2019-06-26T06:49:31.334Z,30.00
2019-06-26T06:52:02.246Z,30.20
2019-06-26T06:54:33.263Z,30.60
2019-06-26T06:57:04.040Z,30.20
2019-06-26T06:59:34.696Z,29.40
2019-06-26T07:02:05.853Z,29.30
2019-06-26T07:04:39.379Z,29.20
2019-06-26T07:07:14.573Z,29.20
2019-06-26T07:09:45.809Z,29.30
2019-06-26T07:12:16.746Z,29.30
2019-06-26T07:14:47.692Z,29.20
2019-06-26T07:17:20.961Z,29.50
2019-06-26T07:19:51.757Z,29.60
2019-06-26T07:22:22.817Z,30.10
2019-06-26T07:24:54.364Z,30.40
2019-06-26T07:27:25.301Z,30.30
2019-06-26T07:29:56.340Z,30.30
2019-06-26T07:32:27.212Z,30.50
2019-06-26T07:34:58.282Z,30.70
2019-06-26T07:37:29.147Z,30.60
2019-06-26T07:40:02.173Z,30.50
2019-06-26T07:42:33.364Z,30.50
2019-06-26T07:45:07.320Z,31.50
2019-06-26T07:47:43.704Z,31.70
2019-06-26T07:50:10.795Z,31.50
2019-06-26T07:52:41.968Z,32.00
2019-06-26T07:55:12.690Z,31.70
2019-06-26T07:57:43.706Z,32.30
2019-06-26T08:00:15.137Z,33.00
2019-06-26T08:02:46.279Z,32.10
2019-06-26T08:05:17.521Z,32.00
2019-06-26T08:07:48.407Z,32.10
2019-06-26T08:10:19.436Z,32.10
2019-06-26T08:12:50.140Z,32.30
2019-06-26T08:15:21.370Z,32.80
2019-06-26T08:18:00.370Z,33.50
2019-06-26T08:20:24.855Z,32.80
2019-06-26T08:22:55.739Z,33.60
2019-06-26T08:25:26.583Z,34.00
2019-06-26T08:27:57.547Z,33.40
2019-06-26T08:30:28.412Z,33.00
2019-06-26T08:32:59.664Z,33.20
2019-06-26T08:35:30.602Z,33.20
2019-06-26T08:38:10.912Z,33.30
2019-06-26T08:40:34.421Z,33.20
2019-06-26T08:43:05.819Z,33.30
2019-06-26T08:45:36.814Z,33.50
2019-06-26T08:48:19.308Z,33.60
2019-06-26T08:50:40.677Z,33.20
2019-06-26T08:53:11.567Z,33.40
2019-06-26T08:55:42.496Z,33.60
2019-06-26T08:58:18.652Z,33.60
2019-06-26T09:00:49.683Z,33.50
2019-06-26T09:03:20.700Z,33.90
2019-06-26T09:06:04.626Z,34.00
2019-06-26T09:08:40.766Z,33.50
2019-06-26T09:11:11.895Z,33.80
2019-06-26T09:13:50.157Z,33.90
2019-06-26T09:16:26.265Z,34.10
2019-06-26T09:19:00.635Z,33.50
2019-06-26T09:21:33.611Z,33.40
2019-06-26T09:24:04.388Z,33.60
2019-06-26T09:26:35.141Z,34.00
2019-06-26T09:29:05.771Z,34.30
2019-06-26T09:31:36.918Z,34.10
2019-06-26T09:34:07.816Z,33.90
2019-06-26T09:36:40.673Z,33.70
2019-06-26T09:39:11.511Z,33.40
2019-06-26T09:41:42.391Z,33.70
2019-06-26T09:44:13.061Z,33.90
2019-06-26T09:46:44.029Z,34.00
2019-06-26T09:49:14.910Z,33.50
2019-06-26T09:51:45.809Z,33.70
2019-06-26T09:54:16.729Z,33.50
2019-06-26T09:56:47.636Z,33.60
2019-06-26T09:59:18.537Z,33.30
2019-06-26T10:01:49.450Z,33.30
2019-06-26T10:04:20.367Z,33.80
2019-06-26T10:06:52.416Z,33.70
2019-06-26T10:09:23.456Z,33.50
2019-06-26T10:11:54.834Z,33.60
2019-06-26T10:14:45.320Z,33.40
2019-06-26T10:16:58.658Z,33.20
2019-06-26T10:19:29.575Z,33.50
2019-06-26T10:22:00.709Z,33.00
2019-06-26T10:24:31.575Z,33.20
2019-06-26T10:27:02.252Z,33.20
2019-06-26T10:29:33.662Z,33.10
2019-06-26T10:32:04.803Z,33.10
2019-06-26T10:34:35.742Z,33.00
2019-06-26T10:37:06.778Z,33.20
2019-06-26T10:39:37.657Z,33.10
2019-06-26T10:42:08.912Z,32.80
2019-06-26T10:44:39.851Z,32.80
2019-06-26T10:47:10.869Z,32.60
2019-06-26T10:49:41.714Z,32.50
2019-06-26T10:52:12.924Z,32.40
2019-06-26T10:54:45.178Z,32.30
2019-06-26T10:57:16.112Z,32.60
2019-06-26T10:59:47.075Z,32.50
2019-06-26T11:02:17.948Z,32.60
2019-06-26T11:04:48.917Z,32.50
2019-06-26T11:07:19.872Z,32.60
2019-06-26T11:09:50.875Z,32.80
2019-06-26T11:12:21.844Z,32.50
2019-06-26T11:14:52.788Z,32.40
2019-06-26T11:17:23.664Z,32.30
2019-06-26T11:19:55.722Z,32.20
2019-06-26T11:22:26.645Z,32.20
2019-06-26T11:24:57.483Z,32.00
2019-06-26T11:27:28.360Z,32.20
2019-06-26T11:29:59.316Z,32.60
2019-06-26T11:32:30.231Z,32.50
2019-06-26T11:35:00.920Z,32.20
2019-06-26T11:37:31.826Z,32.30
2019-06-26T11:40:02.599Z,32.30
2019-06-26T11:42:33.512Z,32.40
2019-06-26T11:45:04.444Z,32.40
2019-06-26T11:47:35.439Z,32.70
2019-06-26T11:50:07.680Z,32.60
2019-06-26T11:52:38.359Z,32.60
2019-06-26T11:55:10.375Z,32.90
2019-06-26T11:57:41.539Z,32.70
2019-06-26T12:00:14.718Z,32.50
2019-06-26T12:02:45.875Z,32.30
2019-06-26T12:05:17.474Z,32.30
2019-06-26T12:07:48.403Z,32.50
2019-06-26T12:10:20.381Z,32.40
2019-06-26T12:12:51.467Z,32.30
2019-06-26T12:15:23.592Z,32.40
2019-06-26T12:17:55.249Z,32.30
2019-06-26T12:20:26.467Z,32.20
2019-06-26T12:22:57.188Z,32.40
2019-06-26T12:25:28.178Z,32.50
2019-06-26T12:27:59.050Z,32.60
2019-06-26T12:30:30.029Z,32.50
2019-06-26T12:33:03.331Z,32.50
2019-06-26T12:35:33.511Z,32.30
2019-06-26T12:38:04.450Z,32.50
2019-06-26T12:40:35.402Z,32.50
2019-06-26T12:43:06.385Z,32.50
2019-06-26T12:45:37.365Z,32.40
2019-06-26T12:48:08.238Z,32.40
2019-06-26T12:50:39.144Z,32.60
2019-06-26T12:53:10.157Z,32.80
2019-06-26T12:55:41.147Z,32.70
2019-06-26T12:58:14.918Z,32.80
2019-06-26T13:00:44.701Z,32.80
2019-06-26T13:03:15.643Z,32.90
2019-06-26T13:05:46.619Z,32.90
2019-06-26T13:08:17.631Z,32.80
2019-06-26T13:10:50.317Z,32.90
2019-06-26T13:13:21.113Z,32.80
2019-06-26T13:15:52.080Z,32.90
2019-06-26T13:18:22.982Z,33.00
2019-06-26T13:20:55.343Z,33.00
2019-06-26T13:23:26.199Z,32.80
2019-06-26T13:25:57.080Z,32.60
2019-06-26T13:28:27.949Z,32.70
2019-06-26T13:30:59.158Z,32.80
2019-06-26T13:33:30.449Z,32.70
2019-06-26T13:36:01.209Z,32.80
2019-06-26T13:38:32.141Z,32.90
2019-06-26T13:41:03.095Z,32.90
2019-06-26T13:43:33.989Z,32.80
2019-06-26T13:46:05.276Z,32.70
2019-06-26T13:48:36.675Z,32.60
2019-06-26T13:51:09.876Z,32.60
2019-06-26T13:53:40.434Z,32.70
2019-06-26T13:56:11.743Z,32.60
2019-06-26T13:58:42.758Z,32.70
2019-06-26T14:01:13.394Z,32.70
2019-06-26T14:03:44.274Z,32.80
2019-06-26T14:06:15.281Z,32.70
2019-06-26T14:08:46.179Z,32.60
2019-06-26T14:11:17.110Z,32.60
2019-06-26T14:13:48.015Z,32.50
2019-06-26T14:16:18.662Z,32.50
2019-06-26T14:18:49.672Z,32.50
2019-06-26T14:21:25.657Z,32.20
2019-06-26T14:23:53.171Z,32.20
2019-06-26T14:26:24.077Z,32.10
2019-06-26T14:28:55.876Z,31.90
2019-06-26T14:31:27.108Z,31.80
2019-06-26T14:33:58.259Z,31.60
2019-06-26T14:36:29.181Z,31.30
2019-06-26T14:39:00.114Z,31.30
2019-06-26T14:41:31.092Z,31.20
2019-06-26T14:44:02.133Z,31.10
2019-06-26T14:46:33.049Z,31.00
2019-06-26T14:49:04.202Z,30.90
2019-06-26T14:51:43.885Z,30.80
2019-06-26T14:54:07.625Z,30.70
2019-06-26T14:56:38.507Z,30.60
2019-06-26T14:59:09.370Z,30.60
2019-06-26T15:01:40.302Z,30.50
2019-06-26T15:04:11.203Z,30.40
2019-06-26T15:06:42.417Z,30.40
2019-06-26T15:09:13.390Z,30.30
2019-06-26T15:11:44.292Z,30.30
2019-06-26T15:14:15.243Z,30.20
2019-06-26T15:16:46.495Z,30.20
2019-06-26T15:19:17.400Z,30.10
2019-06-26T15:21:58.365Z,30.10
2019-06-26T15:24:23.176Z,30.20
2019-06-26T15:26:55.477Z,30.10
2019-06-26T15:29:26.469Z,30.00
2019-06-26T15:31:57.383Z,29.90
2019-06-26T15:34:28.330Z,29.90
2019-06-26T15:36:59.366Z,29.80
2019-06-26T15:39:30.286Z,29.70
2019-06-26T15:42:01.651Z,29.70
2019-06-26T15:44:32.543Z,29.70
2019-06-26T15:47:03.304Z,29.80
2019-06-26T15:49:34.235Z,29.70
2019-06-26T15:52:15.207Z,29.70
2019-06-26T15:54:39.811Z,29.70
2019-06-26T15:57:10.552Z,29.70
2019-06-26T15:59:41.467Z,29.70
2019-06-26T16:02:12.387Z,29.60
2019-06-26T16:04:43.306Z,29.50
2019-06-26T16:07:14.212Z,29.50
2019-06-26T16:09:45.462Z,29.50
2019-06-26T16:12:16.333Z,29.50
2019-06-26T16:14:47.236Z,29.40
2019-06-26T16:17:42.543Z,29.40
2019-06-26T16:20:14.041Z,29.40
2019-06-26T16:22:45.059Z,29.30
2019-06-26T16:25:19.252Z,29.20
2019-06-26T16:28:04.281Z,29.10
2019-06-26T16:30:23.519Z,29.10
2019-06-26T16:32:56.935Z,29.00
2019-06-26T16:35:28.305Z,29.00
2019-06-26T16:37:59.632Z,29.00
2019-06-26T16:40:30.657Z,29.00
2019-06-26T16:43:01.691Z,28.90
2019-06-26T16:45:32.554Z,29.00
2019-06-26T16:48:04.037Z,29.00
2019-06-26T16:50:34.937Z,28.90
2019-06-26T16:53:05.590Z,28.90
2019-06-26T16:55:36.523Z,28.80
2019-06-26T16:58:07.566Z,28.80
2019-06-26T17:00:38.493Z,28.70
2019-06-26T17:03:09.301Z,28.70
2019-06-26T17:05:39.957Z,28.60
2019-06-26T17:08:10.984Z,28.60
2019-06-26T17:10:41.920Z,28.60
2019-06-26T17:13:13.374Z,28.60
2019-06-26T17:15:44.598Z,28.50
2019-06-26T17:18:15.504Z,28.60
2019-06-26T17:20:46.416Z,28.60
2019-06-26T17:23:17.417Z,28.50
2019-06-26T17:25:48.478Z,28.50
2019-06-26T17:28:19.532Z,28.40
2019-06-26T17:30:53.034Z,28.40
2019-06-26T17:33:28.542Z,28.30
2019-06-26T17:35:59.401Z,28.20
2019-06-26T17:38:30.083Z,28.20
2019-06-26T17:41:00.945Z,28.20
2019-06-26T17:43:31.878Z,28.10
2019-06-26T17:46:02.889Z,28.10
2019-06-26T17:48:33.772Z,28.00
2019-06-26T17:51:04.683Z,28.10
2019-06-26T17:53:39.641Z,28.10
2019-06-26T17:56:15.203Z,28.00
2019-06-26T17:58:51.631Z,27.90
2019-06-26T18:01:22.662Z,27.80
2019-06-26T18:03:54.969Z,27.80
2019-06-26T18:06:25.881Z,27.80
2019-06-26T18:08:56.543Z,27.70
2019-06-26T18:11:27.488Z,27.70
2019-06-26T18:13:58.363Z,27.60
2019-06-26T18:16:29.784Z,27.50
2019-06-26T18:19:01.002Z,27.50
2019-06-26T18:21:31.910Z,27.50
2019-06-26T18:24:02.577Z,27.40
2019-06-26T18:26:33.463Z,27.40
2019-06-26T18:29:04.209Z,27.30
2019-06-26T18:31:35.284Z,27.30
2019-06-26T18:34:06.076Z,27.30
2019-06-26T18:36:37.061Z,27.10
2019-06-26T18:39:09.631Z,27.20
2019-06-26T18:41:40.552Z,27.10
2019-06-26T18:44:11.657Z,27.10
2019-06-26T18:46:42.580Z,27.00
2019-06-26T18:49:13.398Z,27.00
2019-06-26T18:51:44.524Z,26.90
2019-06-26T18:54:15.799Z,26.80
2019-06-26T18:56:47.045Z,26.90
2019-06-26T18:59:18.030Z,26.90
2019-06-26T19:01:49.020Z,26.70
2019-06-26T19:04:21.710Z,26.70
2019-06-26T19:06:52.891Z,26.60
2019-06-26T19:09:23.803Z,26.60
2019-06-26T19:11:56.012Z,26.50
2019-06-26T19:14:26.975Z,26.40
2019-06-26T19:16:59.585Z,26.30
2019-06-26T19:19:30.254Z,26.30
2019-06-26T19:22:01.444Z,26.20
2019-06-26T19:24:32.447Z,26.20
2019-06-26T19:27:07.602Z,26.10
2019-06-26T19:29:41.776Z,26.10
2019-06-26T19:32:12.718Z,26.10
2019-06-26T19:34:43.727Z,26.00
2019-06-26T19:37:14.723Z,26.00
2019-06-26T19:39:46.008Z,26.00
2019-06-26T19:42:16.932Z,26.00
2019-06-26T19:44:48.117Z,25.90
2019-06-26T19:47:19.005Z,25.80
2019-06-26T19:49:50.180Z,25.60
2019-06-26T19:52:21.127Z,25.60
2019-06-26T19:54:52.105Z,25.70
2019-06-26T19:57:24.484Z,25.60
2019-06-26T19:59:56.141Z,25.50
2019-06-26T20:02:27.158Z,25.40
2019-06-26T20:04:57.822Z,25.40
2019-06-26T20:07:28.762Z,25.30
2019-06-26T20:10:01.927Z,25.30
2019-06-26T20:12:32.349Z,25.30
2019-06-26T20:15:03.100Z,25.30
2019-06-26T20:17:34.066Z,25.30
2019-06-26T20:20:05.002Z,25.30
2019-06-26T20:22:36.158Z,25.10
2019-06-26T20:25:07.297Z,24.90
2019-06-26T20:27:38.312Z,24.90
2019-06-26T20:30:10.294Z,24.90
2019-06-26T20:32:41.273Z,24.90
2019-06-26T20:35:12.183Z,24.90
2019-06-26T20:37:43.130Z,24.80
2019-06-26T20:40:13.977Z,24.80
2019-06-26T20:42:44.990Z,24.70
2019-06-26T20:45:16.460Z,24.70
2019-06-26T20:47:47.440Z,24.60
2019-06-26T20:50:18.375Z,24.70
2019-06-26T20:52:49.306Z,24.50
2019-06-26T20:55:20.566Z,24.50
2019-06-26T20:57:51.523Z,24.50
2019-06-26T21:00:23.363Z,24.40
2019-06-26T21:02:55.685Z,24.30
2019-06-26T21:05:28.976Z,24.30
2019-06-26T21:07:59.201Z,24.20
2019-06-26T21:10:30.175Z,24.20
2019-06-26T21:13:01.170Z,24.20
2019-06-26T21:15:32.339Z,24.10
2019-06-26T21:18:03.078Z,24.10
2019-06-26T21:20:35.067Z,24.10
2019-06-26T21:23:17.753Z,24.00
2019-06-26T21:25:38.438Z,24.00
2019-06-26T21:28:09.465Z,24.00
2019-06-26T21:30:40.858Z,23.90
2019-06-26T21:33:11.493Z,23.80
2019-06-26T21:35:42.676Z,23.80
2019-06-26T21:38:13.987Z,23.80
2019-06-26T21:40:44.881Z,23.80
2019-06-26T21:43:15.940Z,23.80
2019-06-26T21:45:46.859Z,23.70
2019-06-26T21:48:18.032Z,23.60
2019-06-26T21:50:48.951Z,23.60
2019-06-26T21:53:19.868Z,23.50
2019-06-26T21:55:50.797Z,23.50
2019-06-26T21:58:21.661Z,23.50
2019-06-26T22:00:55.917Z,23.40
2019-06-26T22:03:26.615Z,23.40
2019-06-26T22:05:58.013Z,23.30
2019-06-26T22:08:28.927Z,23.30
2019-06-26T22:10:59.990Z,23.30
2019-06-26T22:13:30.956Z,23.20
2019-06-26T22:16:01.947Z,23.20
2019-06-26T22:18:32.887Z,23.20
2019-06-26T22:21:03.834Z,23.20
2019-06-26T22:23:34.791Z,23.10
2019-06-26T22:26:06.433Z,23.00
2019-06-26T22:28:37.427Z,23.10
2019-06-26T22:31:08.356Z,23.10
2019-06-26T22:33:39.420Z,23.10
2019-06-26T22:36:10.158Z,23.10
2019-06-26T22:38:41.027Z,23.10
2019-06-26T22:41:12.456Z,23.00
2019-06-26T22:43:43.476Z,23.00
2019-06-26T22:46:14.090Z,23.00
2019-06-26T22:48:45.026Z,22.90
2019-06-26T22:51:15.656Z,22.90
2019-06-26T22:53:46.637Z,22.90
2019-06-26T22:56:17.527Z,22.80
2019-06-26T22:58:48.406Z,22.70
2019-06-26T23:01:19.376Z,22.70
2019-06-26T23:03:50.284Z,22.70
2019-06-26T23:06:21.287Z,22.70
2019-06-26T23:08:53.579Z,22.50
2019-06-26T23:11:24.441Z,22.50
2019-06-26T23:13:55.392Z,22.50
2019-06-26T23:16:26.914Z,22.50
2019-06-26T23:18:57.500Z,22.40
2019-06-26T23:21:28.671Z,22.40
2019-06-26T23:23:59.277Z,22.40
2019-06-26T23:26:30.149Z,22.40
2019-06-26T23:29:01.379Z,22.40
2019-06-26T23:31:32.295Z,22.30
2019-06-26T23:34:03.407Z,22.30
2019-06-26T23:36:34.567Z,22.30
2019-06-26T23:39:06.186Z,22.30
2019-06-26T23:41:36.797Z,22.20
2019-06-26T23:44:07.422Z,22.20
2019-06-26T23:46:38.393Z,22.10
2019-06-26T23:49:09.453Z,22.20
2019-06-26T23:51:40.400Z,22.00
2019-06-26T23:54:11.303Z,22.00
2019-06-26T23:56:42.208Z,22.00
2019-06-26T23:59:13.398Z,22.00
